createdAt,value
2019-05-20T00:01:37.594Z,13.50
2019-05-20T00:04:03.552Z,13.40
2019-05-20T00:06:29.540Z,13.50
2019-05-20T00:08:56.265Z,13.50
2019-05-20T00:11:22.288Z,13.50
2019-05-20T00:13:48.302Z,13.50
2019-05-20T00:16:14.294Z,13.50
2019-05-20T00:18:40.258Z,13.40
2019-05-20T00:21:06.245Z,13.50
2019-05-20T00:23:32.220Z,13.50
2019-05-20T00:25:58.220Z,13.40
2019-05-20T00:28:24.177Z,13.40
2019-05-20T00:30:50.162Z,13.40
2019-05-20T00:33:16.116Z,13.40
2019-05-20T00:35:42.098Z,13.40
2019-05-20T00:38:08.078Z,13.40
2019-05-20T00:40:34.077Z,13.40
2019-05-20T00:43:00.783Z,13.20
2019-05-20T00:45:26.776Z,13.20
2019-05-20T00:47:52.751Z,13.30
2019-05-20T00:50:18.737Z,13.30
2019-05-20T00:52:44.707Z,13.20
2019-05-20T00:55:11.441Z,13.30
2019-05-20T00:57:37.440Z,13.30
2019-05-20T01:00:03.627Z,13.30
2019-05-20T01:02:29.580Z,13.30
2019-05-20T01:04:55.547Z,13.30
2019-05-20T01:07:21.543Z,13.30
2019-05-20T01:09:47.522Z,13.40
2019-05-20T01:12:13.521Z,13.40
2019-05-20T01:14:39.508Z,13.30
2019-05-20T01:17:05.522Z,13.40
2019-05-20T01:19:31.497Z,13.40
2019-05-20T01:21:58.228Z,13.30
2019-05-20T01:24:24.202Z,13.30
2019-05-20T01:26:50.201Z,13.30
2019-05-20T01:29:16.179Z,13.30
2019-05-20T01:31:42.183Z,13.30
2019-05-20T01:34:08.159Z,13.30
2019-05-20T01:36:34.909Z,13.10
2019-05-20T01:39:00.900Z,13.10
2019-05-20T01:41:26.895Z,13.10
2019-05-20T01:43:52.893Z,13.20
2019-05-20T01:46:18.858Z,13.20
2019-05-20T01:48:44.855Z,13.20
2019-05-20T01:51:10.845Z,13.30
2019-05-20T01:53:36.838Z,13.30
2019-05-20T01:56:03.599Z,13.30
2019-05-20T01:58:30.317Z,13.30
2019-05-20T02:00:56.276Z,13.30
2019-05-20T02:03:31.491Z,13.30
2019-05-20T02:05:48.302Z,13.30
2019-05-20T02:08:15.035Z,13.30
2019-05-20T02:10:41.759Z,13.30
2019-05-20T02:13:07.751Z,13.30
2019-05-20T02:15:33.767Z,13.30
2019-05-20T02:17:59.773Z,13.30
2019-05-20T02:20:25.753Z,13.40
2019-05-20T02:22:51.736Z,13.30
2019-05-20T02:25:17.735Z,13.20
2019-05-20T02:27:43.724Z,13.20
2019-05-20T02:30:09.727Z,13.20
2019-05-20T02:32:35.722Z,13.20
2019-05-20T02:35:01.808Z,13.20
2019-05-20T02:37:27.761Z,13.20
2019-05-20T02:39:53.769Z,13.20
2019-05-20T02:42:20.474Z,13.20
2019-05-20T02:44:46.485Z,13.20
2019-05-20T02:47:12.492Z,13.20
2019-05-20T02:49:38.497Z,13.20
2019-05-20T02:52:04.473Z,13.10
2019-05-20T02:54:30.473Z,13.10
2019-05-20T02:56:56.458Z,13.10
2019-05-20T02:59:22.458Z,13.10
2019-05-20T03:01:49.172Z,13.10
2019-05-20T03:04:15.201Z,13.10
2019-05-20T03:06:41.209Z,13.00
2019-05-20T03:09:07.349Z,13.10
2019-05-20T03:11:33.226Z,13.00
2019-05-20T03:13:59.223Z,13.00
2019-05-20T03:16:25.932Z,13.00
2019-05-20T03:18:51.954Z,12.90
2019-05-20T03:21:17.952Z,13.00
2019-05-20T03:23:43.919Z,13.00
2019-05-20T03:26:09.927Z,12.90
2019-05-20T03:28:35.913Z,12.90
2019-05-20T03:31:01.932Z,12.90
2019-05-20T03:33:27.914Z,12.90
2019-05-20T03:35:53.905Z,12.80
2019-05-20T03:38:19.897Z,12.80
2019-05-20T03:40:45.903Z,12.80
2019-05-20T03:43:12.609Z,12.80
2019-05-20T03:45:38.594Z,12.80
2019-05-20T03:48:04.567Z,12.70
2019-05-20T03:50:30.577Z,12.80
2019-05-20T03:52:56.566Z,12.70
2019-05-20T03:55:22.578Z,12.70
2019-05-20T03:57:48.564Z,12.80
2019-05-20T04:00:14.564Z,12.70
2019-05-20T04:02:40.536Z,12.70
2019-05-20T04:05:06.559Z,12.70
2019-05-20T04:07:32.568Z,12.70
2019-05-20T04:09:59.309Z,12.80
2019-05-20T04:12:26.020Z,12.80
2019-05-20T04:14:52.025Z,12.80
2019-05-20T04:17:17.992Z,12.90
2019-05-20T04:19:44.738Z,13.00
2019-05-20T04:22:11.426Z,13.00
2019-05-20T04:24:37.410Z,13.00
2019-05-20T04:27:04.150Z,13.10
2019-05-20T04:29:30.157Z,13.10
2019-05-20T04:31:56.910Z,13.20
2019-05-20T04:34:23.628Z,13.20
2019-05-20T04:36:49.615Z,13.20
2019-05-20T04:39:15.581Z,13.30
2019-05-20T04:41:42.323Z,13.40
2019-05-20T04:44:09.025Z,13.50
2019-05-20T04:46:35.028Z,13.50
2019-05-20T04:49:01.083Z,13.50
2019-05-20T04:51:27.169Z,13.70
2019-05-20T04:53:53.159Z,13.70
2019-05-20T04:56:19.880Z,13.80
2019-05-20T04:58:45.865Z,13.70
2019-05-20T05:01:11.898Z,13.80
2019-05-20T05:03:38.668Z,13.80
2019-05-20T05:06:04.673Z,13.80
2019-05-20T05:08:30.669Z,14.00
2019-05-20T05:10:56.678Z,14.00
2019-05-20T05:13:22.670Z,14.10
2019-05-20T05:15:48.668Z,14.10
2019-05-20T05:18:14.652Z,14.10
2019-05-20T05:20:40.692Z,14.20
2019-05-20T05:23:06.719Z,14.20
2019-05-20T05:25:32.738Z,14.20
2019-05-20T05:27:58.721Z,14.10
2019-05-20T05:30:25.461Z,14.30
2019-05-20T05:32:51.422Z,14.30
2019-05-20T05:35:17.384Z,14.30
2019-05-20T05:37:43.415Z,14.30
2019-05-20T05:40:09.371Z,14.30
2019-05-20T05:42:35.362Z,14.30
2019-05-20T05:45:01.320Z,14.40
2019-05-20T05:47:27.330Z,14.30
2019-05-20T05:49:54.026Z,14.40
2019-05-20T05:52:22.797Z,14.30
2019-05-20T05:54:46.045Z,14.40
2019-05-20T05:57:12.072Z,14.30
2019-05-20T05:59:38.041Z,14.30
2019-05-20T06:02:04.047Z,14.30
2019-05-20T06:04:30.015Z,14.40
2019-05-20T06:06:56.011Z,14.40
2019-05-20T06:09:21.971Z,14.40
2019-05-20T06:11:48.007Z,14.50
2019-05-20T06:14:13.987Z,14.60
2019-05-20T06:16:39.977Z,14.60
2019-05-20T06:19:05.991Z,14.50
2019-05-20T06:21:32.040Z,14.60
2019-05-20T06:23:58.047Z,14.60
2019-05-20T06:26:24.077Z,14.60
2019-05-20T06:28:50.052Z,14.60
2019-05-20T06:31:16.885Z,14.80
2019-05-20T06:33:43.619Z,14.90
2019-05-20T06:36:10.372Z,14.90
2019-05-20T06:38:37.105Z,15.00
2019-05-20T06:41:03.832Z,15.00
2019-05-20T06:43:30.606Z,15.10
2019-05-20T06:45:56.591Z,15.10
2019-05-20T06:48:22.603Z,15.30
2019-05-20T06:50:48.582Z,15.40
2019-05-20T06:53:14.578Z,15.30
2019-05-20T06:55:41.298Z,15.50
2019-05-20T06:58:07.316Z,15.50
2019-05-20T07:00:33.291Z,15.60
2019-05-20T07:02:59.289Z,15.60
2019-05-20T07:05:25.260Z,15.70
2019-05-20T07:07:51.245Z,15.70
2019-05-20T07:10:17.946Z,15.60
2019-05-20T07:12:43.960Z,15.60
2019-05-20T07:15:09.959Z,15.50
2019-05-20T07:17:35.948Z,15.30
2019-05-20T07:20:02.669Z,15.20
2019-05-20T07:22:28.648Z,15.20
2019-05-20T07:24:54.640Z,15.20
2019-05-20T07:27:20.671Z,15.30
2019-05-20T07:29:46.638Z,15.30
2019-05-20T07:32:12.626Z,15.30
2019-05-20T07:34:38.596Z,15.30
2019-05-20T07:37:04.563Z,15.30
2019-05-20T07:39:30.577Z,15.30
2019-05-20T07:41:57.321Z,15.30
2019-05-20T07:44:24.048Z,15.30
2019-05-20T07:46:50.763Z,15.30
2019-05-20T07:49:16.752Z,15.30
2019-05-20T07:51:42.703Z,15.20
2019-05-20T07:54:08.709Z,15.10
2019-05-20T07:56:34.743Z,15.20
2019-05-20T07:59:00.791Z,15.20
2019-05-20T08:01:26.772Z,15.20
2019-05-20T08:03:52.798Z,15.30
2019-05-20T08:06:18.780Z,15.30
2019-05-20T08:08:45.527Z,15.50
2019-05-20T08:11:11.527Z,15.50
2019-05-20T08:13:37.521Z,15.60
2019-05-20T08:16:03.535Z,15.80
2019-05-20T08:18:29.569Z,15.80
2019-05-20T08:20:55.567Z,15.90
2019-05-20T08:23:21.611Z,16.00
2019-05-20T08:25:47.614Z,16.00
2019-05-20T08:28:13.688Z,16.10
2019-05-20T08:30:39.667Z,16.10
2019-05-20T08:33:05.706Z,16.30
2019-05-20T08:35:31.703Z,16.20
2019-05-20T08:37:57.694Z,16.20
2019-05-20T08:40:24.427Z,16.10
2019-05-20T08:42:51.180Z,16.10
2019-05-20T08:45:17.966Z,16.30
2019-05-20T08:47:43.991Z,16.20
2019-05-20T08:50:15.658Z,16.30
2019-05-20T08:52:36.052Z,16.40
2019-05-20T08:55:02.680Z,16.40
2019-05-20T08:57:28.502Z,16.30
2019-05-20T08:59:54.531Z,16.30
2019-05-20T09:02:20.524Z,16.40
2019-05-20T09:04:46.536Z,16.30
2019-05-20T09:07:13.254Z,16.10
2019-05-20T09:09:39.296Z,16.10
2019-05-20T09:12:05.307Z,16.10
2019-05-20T09:14:32.072Z,16.30
2019-05-20T09:16:58.072Z,16.30
2019-05-20T09:19:24.845Z,16.50
2019-05-20T09:21:50.891Z,16.50
2019-05-20T09:24:18.997Z,16.50
2019-05-20T09:26:42.940Z,16.50
2019-05-20T09:29:11.353Z,16.40
2019-05-20T09:31:34.991Z,16.50
2019-05-20T09:34:00.983Z,16.50
2019-05-20T09:36:27.020Z,16.50
2019-05-20T09:38:52.999Z,16.50
2019-05-20T09:41:19.060Z,16.70
2019-05-20T09:43:45.217Z,16.70
2019-05-20T09:46:11.162Z,17.10
2019-05-20T09:48:37.146Z,16.90
2019-05-20T09:51:03.148Z,16.80
2019-05-20T09:53:29.136Z,16.80
2019-05-20T09:55:55.155Z,16.70
2019-05-20T09:58:21.149Z,16.70
2019-05-20T10:00:47.167Z,16.80
2019-05-20T10:03:13.150Z,16.90
2019-05-20T10:05:39.884Z,17.00
2019-05-20T10:08:05.859Z,17.00
2019-05-20T10:10:31.919Z,17.20
2019-05-20T10:12:57.905Z,17.30
2019-05-20T10:15:23.939Z,17.20
2019-05-20T10:17:49.941Z,17.30
2019-05-20T10:20:15.961Z,17.10
2019-05-20T10:22:41.962Z,17.20
2019-05-20T10:25:07.992Z,17.30
2019-05-20T10:27:33.970Z,17.20
2019-05-20T10:29:59.951Z,17.10
2019-05-20T10:32:25.983Z,17.00
2019-05-20T10:34:51.954Z,16.90
2019-05-20T10:37:17.968Z,16.90
2019-05-20T10:39:43.937Z,16.90
2019-05-20T10:42:10.670Z,17.10
2019-05-20T10:44:37.395Z,17.20
2019-05-20T10:47:04.235Z,17.30
2019-05-20T10:49:30.991Z,17.40
2019-05-20T10:51:57.022Z,17.40
2019-05-20T10:54:23.032Z,17.60
2019-05-20T10:56:49.774Z,17.70
2019-05-20T10:59:15.786Z,17.60
2019-05-20T11:01:41.801Z,17.50
2019-05-20T11:04:07.774Z,17.60
2019-05-20T11:06:33.786Z,17.70
2019-05-20T11:09:13.066Z,17.60
2019-05-20T11:11:25.827Z,17.60
2019-05-20T11:13:51.811Z,17.60
2019-05-20T11:16:17.859Z,17.70
2019-05-20T11:18:44.588Z,18.10
2019-05-20T11:21:10.574Z,18.10
2019-05-20T11:23:36.562Z,18.10
2019-05-20T11:26:02.581Z,18.20
2019-05-20T11:28:29.281Z,18.20
2019-05-20T11:30:55.264Z,18.20
2019-05-20T11:33:21.293Z,18.20
2019-05-20T11:35:47.309Z,18.30
2019-05-20T11:38:13.338Z,18.50
2019-05-20T11:40:39.322Z,18.70
2019-05-20T11:43:06.090Z,18.90
2019-05-20T11:45:32.063Z,18.90
2019-05-20T11:47:58.057Z,18.90
2019-05-20T11:50:24.031Z,18.80
2019-05-20T11:52:50.802Z,19.10
2019-05-20T11:55:16.834Z,19.10
2019-05-20T11:57:42.831Z,19.20
2019-05-20T12:00:09.551Z,19.40
2019-05-20T12:02:35.576Z,19.40
2019-05-20T12:05:02.437Z,19.60
2019-05-20T12:07:28.392Z,19.60
2019-05-20T12:09:54.436Z,19.30
2019-05-20T12:12:20.489Z,19.30
2019-05-20T12:14:46.499Z,19.30
2019-05-20T12:17:12.518Z,19.30
2019-05-20T12:19:38.508Z,18.90
2019-05-20T12:22:04.521Z,18.90
2019-05-20T12:24:30.523Z,18.70
2019-05-20T12:26:57.282Z,19.30
2019-05-20T12:29:23.327Z,19.30
2019-05-20T12:31:49.314Z,19.40
2019-05-20T12:34:15.308Z,19.50
2019-05-20T12:36:41.310Z,19.30
2019-05-20T12:39:07.310Z,19.20
2019-05-20T12:41:33.405Z,19.20
2019-05-20T12:44:11.998Z,19.80
2019-05-20T12:46:26.225Z,19.80
2019-05-20T12:48:52.336Z,19.90
2019-05-20T12:51:19.034Z,20.10
2019-05-20T12:53:45.799Z,19.90
2019-05-20T12:56:11.795Z,19.90
2019-05-20T12:58:37.817Z,19.90
2019-05-20T13:01:03.830Z,20.10
2019-05-20T13:03:29.845Z,20.30
2019-05-20T13:05:55.854Z,20.10
2019-05-20T13:08:21.864Z,20.30
2019-05-20T13:10:47.873Z,20.30
2019-05-20T13:13:13.873Z,20.40
2019-05-20T13:15:40.593Z,20.80
2019-05-20T13:18:06.675Z,20.80
2019-05-20T13:20:32.669Z,20.80
2019-05-20T13:22:58.704Z,21.00
2019-05-20T13:25:24.690Z,21.20
2019-05-20T13:27:51.441Z,21.30
2019-05-20T13:30:18.192Z,21.10
2019-05-20T13:32:44.911Z,21.10
2019-05-20T13:35:10.959Z,21.00
2019-05-20T13:37:36.956Z,21.00
2019-05-20T13:40:03.596Z,21.00
2019-05-20T13:42:28.958Z,20.90
2019-05-20T13:44:54.954Z,21.00
2019-05-20T13:47:21.688Z,21.00
2019-05-20T13:49:48.426Z,21.00
2019-05-20T13:52:15.151Z,20.80
2019-05-20T13:54:41.153Z,20.70
2019-05-20T13:57:07.146Z,20.80
2019-05-20T13:59:33.181Z,20.90
2019-05-20T14:01:59.169Z,20.80
2019-05-20T14:04:25.204Z,20.70
2019-05-20T14:06:51.197Z,20.70
2019-05-20T14:09:17.219Z,20.80
2019-05-20T14:11:43.219Z,20.90
2019-05-20T14:14:09.213Z,20.80
2019-05-20T14:16:35.196Z,20.70
2019-05-20T14:19:01.190Z,20.70
2019-05-20T14:21:27.180Z,20.60
2019-05-20T14:23:53.203Z,20.60
2019-05-20T14:26:19.179Z,20.40
2019-05-20T14:28:45.178Z,20.30
2019-05-20T14:31:11.215Z,20.30
2019-05-20T14:33:37.196Z,20.20
2019-05-20T14:36:03.205Z,20.30
2019-05-20T14:38:29.182Z,20.30
2019-05-20T14:40:55.212Z,20.30
2019-05-20T14:43:21.963Z,20.60
2019-05-20T14:45:48.737Z,20.70
2019-05-20T14:48:14.744Z,20.70
2019-05-20T14:50:41.490Z,20.60
2019-05-20T14:53:08.225Z,20.50
2019-05-20T14:55:42.348Z,20.50
2019-05-20T14:58:01.096Z,20.50
2019-05-20T15:00:27.849Z,20.00
2019-05-20T15:02:53.829Z,20.00
2019-05-20T15:05:19.824Z,20.00
2019-05-20T15:07:45.830Z,20.00
2019-05-20T15:10:11.834Z,19.90
2019-05-20T15:12:38.588Z,19.90
2019-05-20T15:15:04.623Z,19.80
2019-05-20T15:17:30.624Z,20.00
2019-05-20T15:19:57.335Z,20.10
2019-05-20T15:22:23.342Z,20.10
2019-05-20T15:24:49.348Z,20.10
2019-05-20T15:27:15.482Z,20.10
2019-05-20T15:29:41.434Z,20.10
2019-05-20T15:32:07.460Z,19.90
2019-05-20T15:34:33.469Z,20.00
2019-05-20T15:36:59.453Z,20.00
2019-05-20T15:39:25.471Z,19.70
2019-05-20T15:41:51.489Z,19.30
2019-05-20T15:44:17.454Z,19.30
2019-05-20T15:46:43.460Z,19.30
2019-05-20T15:49:09.450Z,19.20
2019-05-20T15:51:35.497Z,19.10
2019-05-20T15:54:01.514Z,19.20
2019-05-20T15:56:27.515Z,19.30
2019-05-20T15:58:54.228Z,19.30
2019-05-20T16:01:20.219Z,19.30
2019-05-20T16:03:46.199Z,19.40
2019-05-20T16:06:12.938Z,19.30
2019-05-20T16:08:39.679Z,19.10
2019-05-20T16:11:07.032Z,18.90
2019-05-20T16:13:32.444Z,18.90
2019-05-20T16:15:59.213Z,18.60
2019-05-20T16:18:25.231Z,18.60
2019-05-20T16:20:51.292Z,18.50
2019-05-20T16:23:17.285Z,18.60
2019-05-20T16:25:43.296Z,18.50
2019-05-20T16:28:09.285Z,18.30
2019-05-20T16:30:35.273Z,18.10
2019-05-20T16:33:01.274Z,18.00
2019-05-20T16:35:27.270Z,17.90
2019-05-20T16:37:54.025Z,17.60
2019-05-20T16:40:20.006Z,17.60
2019-05-20T16:42:46.065Z,17.60
2019-05-20T16:45:12.938Z,17.50
2019-05-20T16:47:39.033Z,17.50
2019-05-20T16:50:06.368Z,17.80
2019-05-20T16:52:31.911Z,17.70
2019-05-20T16:54:57.949Z,17.70
2019-05-20T16:57:23.973Z,17.50
2019-05-20T16:59:49.990Z,17.30
2019-05-20T17:02:15.997Z,17.10
2019-05-20T17:04:42.735Z,17.00
2019-05-20T17:07:09.477Z,17.00
2019-05-20T17:09:36.204Z,16.90
2019-05-20T17:12:02.242Z,16.80
2019-05-20T17:14:29.238Z,16.80
2019-05-20T17:16:55.091Z,16.80
2019-05-20T17:19:21.082Z,16.80
2019-05-20T17:21:47.181Z,16.80
2019-05-20T17:24:13.207Z,16.70
2019-05-20T17:26:39.256Z,16.70
2019-05-20T17:29:05.286Z,16.50
2019-05-20T17:31:31.290Z,16.60
2019-05-20T17:33:57.266Z,16.50
2019-05-20T17:36:24.024Z,16.50
2019-05-20T17:38:50.766Z,16.50
2019-05-20T17:41:17.531Z,16.50
2019-05-20T17:43:43.559Z,16.40
2019-05-20T17:46:09.666Z,16.40
2019-05-20T17:48:35.679Z,16.50
2019-05-20T17:51:08.621Z,16.50
2019-05-20T17:53:34.644Z,16.60
2019-05-20T17:56:00.639Z,16.50
2019-05-20T17:58:26.643Z,16.50
2019-05-20T18:00:52.759Z,16.40
2019-05-20T18:03:19.119Z,16.40
2019-05-20T18:05:45.415Z,16.40
2019-05-20T18:08:11.590Z,16.30
2019-05-20T18:10:37.585Z,16.30
2019-05-20T18:13:03.634Z,16.30
2019-05-20T18:15:29.604Z,16.20
2019-05-20T18:17:55.624Z,16.20
2019-05-20T18:20:21.647Z,16.20
2019-05-20T18:22:48.418Z,16.20
2019-05-20T18:25:14.400Z,16.10
2019-05-20T18:27:40.473Z,16.10
2019-05-20T18:30:06.466Z,16.00
2019-05-20T18:32:33.258Z,15.80
2019-05-20T18:34:59.256Z,15.70
2019-05-20T18:37:25.301Z,15.80
2019-05-20T18:39:51.298Z,15.80
2019-05-20T18:42:18.044Z,15.70
2019-05-20T18:44:44.000Z,15.70
2019-05-20T18:47:09.970Z,15.70
2019-05-20T18:49:35.966Z,15.70
2019-05-20T18:52:01.919Z,15.70
2019-05-20T18:54:27.905Z,15.70
2019-05-20T18:56:53.881Z,15.70
2019-05-20T18:59:19.884Z,15.70
2019-05-20T19:02:03.422Z,15.60
2019-05-20T19:04:12.676Z,15.60
2019-05-20T19:06:38.643Z,15.60
2019-05-20T19:09:04.635Z,15.60
2019-05-20T19:11:30.628Z,15.70
2019-05-20T19:13:57.373Z,15.60
2019-05-20T19:16:24.084Z,15.50
2019-05-20T19:18:50.089Z,15.50
2019-05-20T19:21:16.075Z,15.50
2019-05-20T19:23:42.088Z,15.50
2019-05-20T19:26:08.071Z,15.40
2019-05-20T19:28:34.084Z,15.40
2019-05-20T19:31:00.053Z,15.40
2019-05-20T19:33:26.780Z,15.30
2019-05-20T19:35:53.501Z,15.30
2019-05-20T19:38:19.564Z,15.30
2019-05-20T19:40:45.534Z,15.30
2019-05-20T19:43:11.582Z,15.30
2019-05-20T19:45:37.571Z,15.30
2019-05-20T19:48:03.581Z,15.40
2019-05-20T19:50:29.579Z,15.40
2019-05-20T19:52:55.619Z,15.30
2019-05-20T19:55:21.658Z,15.30
2019-05-20T19:57:47.610Z,15.20
2019-05-20T20:00:13.626Z,15.20
2019-05-20T20:02:39.586Z,15.10
2019-05-20T20:05:06.313Z,15.20
2019-05-20T20:07:32.267Z,15.10
2019-05-20T20:09:59.011Z,15.10
2019-05-20T20:12:24.993Z,15.10
2019-05-20T20:14:50.988Z,15.20
2019-05-20T20:17:16.942Z,15.20
2019-05-20T20:19:42.947Z,15.20
2019-05-20T20:22:08.942Z,15.20
2019-05-20T20:24:35.035Z,15.10
2019-05-20T20:27:01.094Z,15.10
2019-05-20T20:29:27.176Z,15.10
2019-05-20T20:31:53.899Z,15.00
2019-05-20T20:34:19.915Z,15.00
2019-05-20T20:36:45.915Z,15.10
2019-05-20T20:39:11.955Z,15.10
2019-05-20T20:41:37.947Z,15.10
2019-05-20T20:44:03.944Z,15.00
2019-05-20T20:46:30.652Z,14.90
2019-05-20T20:48:56.669Z,14.90
2019-05-20T20:51:22.662Z,14.80
2019-05-20T20:53:48.686Z,14.80
2019-05-20T20:56:24.586Z,14.80
2019-05-20T20:58:40.742Z,14.90
2019-05-20T21:01:06.733Z,14.80
2019-05-20T21:03:32.745Z,14.80
2019-05-20T21:05:59.497Z,14.70
2019-05-20T21:08:26.223Z,14.70
2019-05-20T21:10:52.989Z,14.60
2019-05-20T21:13:18.987Z,14.60
2019-05-20T21:15:45.005Z,14.70
2019-05-20T21:18:11.023Z,14.70
2019-05-20T21:20:37.023Z,14.70
2019-05-20T21:23:03.016Z,14.60
2019-05-20T21:25:29.024Z,14.60
2019-05-20T21:27:55.014Z,14.50
2019-05-20T21:30:21.020Z,14.40
2019-05-20T21:32:47.048Z,14.40
2019-05-20T21:35:13.059Z,14.40
2019-05-20T21:37:39.046Z,14.30
2019-05-20T21:40:05.064Z,14.40
2019-05-20T21:42:31.051Z,14.40
2019-05-20T21:44:57.801Z,14.30
2019-05-20T21:47:24.537Z,14.20
2019-05-20T21:49:50.538Z,14.20
2019-05-20T21:52:16.509Z,14.30
2019-05-20T21:54:42.533Z,14.20
2019-05-20T21:57:09.231Z,14.20
2019-05-20T21:59:35.238Z,14.10
2019-05-20T22:02:01.255Z,14.20
2019-05-20T22:04:27.235Z,14.20
2019-05-20T22:06:53.942Z,14.20
2019-05-20T22:09:19.931Z,14.10
2019-05-20T22:11:45.927Z,14.10
2019-05-20T22:14:11.926Z,14.10
2019-05-20T22:16:38.682Z,14.10
2019-05-20T22:19:04.686Z,14.10
2019-05-20T22:21:31.455Z,14.00
2019-05-20T22:23:57.435Z,14.00
2019-05-20T22:26:23.454Z,14.00
2019-05-20T22:28:49.412Z,14.00
2019-05-20T22:31:16.150Z,13.90
2019-05-20T22:33:42.928Z,14.00
2019-05-20T22:36:09.643Z,13.90
2019-05-20T22:38:35.621Z,13.90
2019-05-20T22:41:01.650Z,13.90
2019-05-20T22:43:27.636Z,13.90
2019-05-20T22:45:53.798Z,13.80
2019-05-20T22:48:20.547Z,13.70
2019-05-20T22:50:48.765Z,13.70
2019-05-20T22:53:13.299Z,13.40
2019-05-20T22:55:39.302Z,13.40
2019-05-20T22:58:05.282Z,13.40
2019-05-20T23:00:32.028Z,13.40
2019-05-20T23:02:58.765Z,13.40
2019-05-20T23:05:25.515Z,13.40
2019-05-20T23:07:51.521Z,13.40
2019-05-20T23:10:18.238Z,13.40
2019-05-20T23:12:44.241Z,13.40
2019-05-20T23:15:10.234Z,13.30
2019-05-20T23:17:36.243Z,13.40
2019-05-20T23:20:02.303Z,13.30
2019-05-20T23:22:28.302Z,13.30
2019-05-20T23:24:54.327Z,13.40
2019-05-20T23:27:20.339Z,13.40
2019-05-20T23:29:46.326Z,13.40
2019-05-20T23:32:12.346Z,13.50
2019-05-20T23:34:38.319Z,13.40
2019-05-20T23:37:05.069Z,13.40
2019-05-20T23:39:31.120Z,13.40
2019-05-20T23:41:57.145Z,13.40
2019-05-20T23:44:23.127Z,13.40
2019-05-20T23:46:49.109Z,13.40
2019-05-20T23:49:15.133Z,13.40
2019-05-20T23:51:41.128Z,13.30
2019-05-20T23:54:07.161Z,13.30
2019-05-20T23:56:33.141Z,13.30
2019-05-20T23:58:59.158Z,13.20
